Time;durP1;ratioP1;P1;durP2;ratioP2;P2;SDS_P1;SDS_P2;PMS_P1;PMS_P2;Temp;Humidity;BMP_temperature;BMP_pressure;BME280_temperature;BME280_humidity;BME280_pressure;Samples;Min_cycle;Max_cycle;Signal;HPM_P1;HPM_P2
2023/03/14 00:01:52;;;;;;;3.08;1.42;;;;;;;19.15;50.81;95193.19;10419143;28;20107;-51
2023/03/14 00:07:12;;;;;;;4.03;1.85;;;;;;;19.14;50.82;95210.56;10419008;28;20421;-51
2023/03/14 00:12:32;;;;;;;2.35;1.60;;;;;;;19.13;50.91;95207.09;10418854;28;20045;-51
2023/03/14 00:17:52;;;;;;;4.60;1.70;;;;;;;19.11;50.88;95201.25;10418972;28;20453;-52
2023/03/14 00:23:11;;;;;;;3.45;1.60;;;;;;;19.11;50.81;95171.56;10418310;28;20401;-51
2023/03/14 00:28:31;;;;;;;3.13;1.88;;;;;;;19.10;50.89;95161.91;10417722;28;20060;-50
2023/03/14 00:33:52;;;;;;;2.65;1.70;;;;;;;19.08;50.89;95164.19;10417864;28;20049;-50
2023/03/14 00:39:12;;;;;;;3.00;1.60;;;;;;;19.08;50.91;95158.00;10417903;28;20060;-51
2023/03/14 00:44:31;;;;;;;2.13;1.50;;;;;;;19.08;50.84;95163.41;10431093;28;20412;-50
2023/03/14 00:49:51;;;;;;;2.75;1.50;;;;;;;19.07;50.83;95138.34;10401734;28;20053;-51
2023/03/14 00:55:11;;;;;;;2.10;1.48;;;;;;;19.06;50.77;95095.53;10416460;28;20053;-49
2023/03/14 01:00:32;;;;;;;2.60;1.55;;;;;;;19.05;50.81;95051.56;10402246;28;20061;-50
2023/03/14 01:05:51;;;;;;;3.55;1.50;;;;;;;19.04;50.77;95012.22;10416596;28;20065;-50
2023/03/14 01:11:14;;;;;;;2.45;1.40;;;;;;;19.03;50.69;94978.25;10429874;28;20091;-51
2023/03/14 01:16:35;;;;;;;2.35;1.40;;;;;;;19.02;50.69;94979.41;10416548;28;20064;-51
2023/03/14 01:21:54;;;;;;;4.35;1.50;;;;;;;19.01;50.71;94969.75;10415218;28;20501;-50
2023/03/14 01:27:14;;;;;;;2.33;1.25;;;;;;;19.00;50.56;94976.31;10415944;28;20053;-51
2023/03/14 01:32:34;;;;;;;2.00;1.52;;;;;;;19.00;50.55;94967.44;10415566;28;20059;-50
2023/03/14 01:37:54;;;;;;;1.48;1.27;;;;;;;18.98;50.57;94940.81;10400744;28;20065;-50
2023/03/14 01:43:18;;;;;;;2.85;1.48;;;;;;;18.97;50.59;94928.44;10400644;28;20053;-51
2023/03/14 01:48:58;;;;;;;2.35;1.60;;;;;;;18.96;50.54;94940.41;10415332;28;20107;-50
2023/03/14 01:54:35;;;;;;;2.05;1.50;;;;;;;18.94;50.80;94940.75;10399959;28;20069;-50
2023/03/14 01:59:58;;;;;;;2.80;1.50;;;;;;;18.94;50.60;94954.25;10400549;28;20123;-49
2023/03/14 02:05:19;;;;;;;3.78;1.55;;;;;;;18.94;50.65;94937.28;10385964;28;20061;-51
2023/03/14 02:10:47;;;;;;;2.67;1.60;;;;;;;18.93;50.49;94930.31;10400212;28;20053;-51
2023/03/14 02:16:08;;;;;;;2.17;1.35;;;;;;;18.92;50.51;94923.38;10400073;28;20050;-51
2023/03/14 02:21:53;;;;;;;2.30;1.27;;;;;;;18.91;50.68;94927.97;10387194;28;20060;-50
2023/03/14 02:27:17;;;;;;;2.53;1.50;;;;;;;18.90;50.57;94923.75;10399874;28;20064;-51
2023/03/14 02:32:41;;;;;;;1.75;1.25;;;;;;;18.90;50.58;94920.28;10399081;28;20519;-50
2023/03/14 02:38:10;;;;;;;1.60;1.20;;;;;;;18.88;50.53;94919.88;10434919;28;20449;-51
2023/03/14 02:43:33;;;;;;;1.85;1.40;;;;;;;18.88;50.50;94933.34;10420638;28;20046;-51
2023/03/14 02:49:00;;;;;;;1.92;1.40;;;;;;;18.84;50.53;94927.91;10421499;28;20061;-51
2023/03/14 02:54:20;;;;;;;2.25;1.30;;;;;;;18.85;50.49;94909.78;10406759;28;20399;-50
2023/03/14 02:59:40;;;;;;;1.73;1.30;;;;;;;18.84;50.43;94908.25;10406583;28;20440;-50
2023/03/14 03:05:06;;;;;;;1.30;1.20;;;;;;;18.82;50.42;94907.81;10406024;28;20501;-50
2023/03/14 03:10:27;;;;;;;2.10;1.27;;;;;;;18.82;50.33;94891.63;10406463;28;20049;-50
2023/03/14 03:15:46;;;;;;;2.35;1.33;;;;;;;18.81;50.35;94873.91;10434097;28;20045;-50
2023/03/14 03:21:08;;;;;;;2.42;1.38;;;;;;;18.80;50.31;94881.22;10420341;28;20060;-51
2023/03/14 03:26:28;;;;;;;2.13;1.30;;;;;;;18.78;50.46;94878.09;10419973;28;20497;-50
2023/03/14 03:31:47;;;;;;;2.15;1.30;;;;;;;18.78;50.40;94872.69;10420525;28;20100;-51
2023/03/14 03:37:07;;;;;;;1.23;1.00;;;;;;;18.77;50.37;94871.88;10420326;28;20057;-50
2023/03/14 03:42:31;;;;;;;1.27;1.13;;;;;;;18.77;50.37;94900.78;10418276;28;20072;-51
2023/03/14 03:47:51;;;;;;;1.77;1.25;;;;;;;18.75;50.34;94887.66;10404607;28;20065;-50
2023/03/14 03:53:10;;;;;;;1.50;1.10;;;;;;;18.75;50.42;94886.91;10419327;28;20057;-51
2023/03/14 03:58:30;;;;;;;1.25;1.10;;;;;;;18.74;50.42;94874.56;10404110;28;20057;-51
2023/03/14 04:03:49;;;;;;;1.70;1.10;;;;;;;18.73;50.34;94873.00;10419191;28;20420;-49
2023/03/14 04:09:10;;;;;;;1.35;1.10;;;;;;;18.72;50.25;94885.72;10403315;28;20064;-51
2023/03/14 04:14:42;;;;;;;1.73;1.20;;;;;;;18.72;50.22;94893.81;10417068;28;20500;-52
2023/03/14 04:20:10;;;;;;;1.17;1.02;;;;;;;18.70;50.44;94884.50;10403175;28;20057;-50
2023/03/14 04:25:30;;;;;;;1.95;1.00;;;;;;;18.70;50.21;94892.59;10403987;28;20405;-52
2023/03/14 04:30:56;;;;;;;1.20;1.10;;;;;;;18.69;50.17;94896.44;10402443;28;20509;-50
2023/03/14 04:36:18;;;;;;;1.35;1.17;;;;;;;18.67;50.19;94902.19;10403111;28;20057;-50
2023/03/14 04:41:38;;;;;;;1.30;1.00;;;;;;;18.67;50.19;94896.03;10403080;28;20456;-51
2023/03/14 04:46:59;;;;;;;1.40;1.00;;;;;;;18.66;50.21;94897.16;10401948;28;20065;-50
2023/03/14 04:52:18;;;;;;;1.30;0.98;;;;;;;18.64;50.12;94911.03;10401808;28;20632;-51
2023/03/14 04:57:39;;;;;;;1.17;1.08;;;;;;;18.64;50.38;94892.16;10401519;28;20057;-51
2023/03/14 05:03:02;;;;;;;1.95;1.02;;;;;;;18.63;50.30;94881.72;10415454;28;20045;-50
2023/03/14 05:08:47;;;;;;;1.77;1.08;;;;;;;18.63;50.42;94876.34;10406305;28;20395;-50
2023/03/14 05:14:27;;;;;;;1.23;0.93;;;;;;;18.62;50.42;94877.47;10392979;28;20046;-50
2023/03/14 05:19:52;;;;;;;1.10;1.00;;;;;;;18.62;51.22;94872.88;10437553;28;20555;-52
2023/03/14 05:25:31;;;;;;;2.53;0.88;;;;;;;18.62;50.99;94867.47;10470668;28;20051;-52
2023/03/14 05:31:23;;;;;;;1.35;0.90;;;;;;;18.62;50.96;94880.97;10430942;28;20053;-52
2023/03/14 05:37:02;;;;;;;1.00;0.90;;;;;;;18.62;51.18;94889.03;10422874;28;20125;-50
2023/03/14 05:42:33;;;;;;;1.00;0.88;;;;;;;18.65;51.45;94896.41;10446145;28;20048;-51
2023/03/14 05:48:18;;;;;;;1.05;0.93;;;;;;;18.66;51.06;94895.25;10441579;28;20059;-50
2023/03/14 05:53:57;;;;;;;0.70;0.70;;;;;;;18.66;50.87;94873.69;10440424;28;20110;-48
2023/03/14 05:59:35;;;;;;;0.80;0.80;;;;;;;18.68;50.56;94881.38;10447769;28;20049;-50
2023/03/14 06:05:18;;;;;;;1.08;0.98;;;;;;;18.70;51.05;94871.00;10417429;28;20049;-49
2023/03/14 06:10:38;;;;;;;1.60;0.90;;;;;;;18.71;50.87;94864.50;10405483;28;20057;-50
2023/03/14 06:15:58;;;;;;;2.60;1.00;;;;;;;18.71;50.81;94886.84;10445588;28;20052;-49
2023/03/14 06:21:19;;;;;;;1.45;0.98;;;;;;;18.72;50.82;94896.50;10463773;28;20064;-50
2023/03/14 06:26:40;;;;;;;1.10;0.80;;;;;;;18.73;50.86;94889.94;10449209;28;20060;-51
2023/03/14 06:31:59;;;;;;;2.88;1.00;;;;;;;18.74;50.85;94883.44;10439027;28;20493;-52
2023/03/14 06:37:20;;;;;;;1.65;0.90;;;;;;;18.75;50.60;94892.28;10418944;28;20053;-49
2023/03/14 06:42:40;;;;;;;1.48;0.98;;;;;;;18.76;50.46;94891.94;10442527;28;20049;-49
2023/03/14 06:48:00;;;;;;;4.97;1.40;;;;;;;18.80;50.33;94883.91;10407411;28;20103;-51
2023/03/14 06:53:28;;;;;;;4.65;1.27;;;;;;;18.82;50.44;94905.13;10406858;28;20057;-51
2023/03/14 06:58:50;;;;;;;2.35;1.05;;;;;;;18.82;50.26;94910.50;10421618;28;20057;-51
2023/03/14 07:04:12;;;;;;;1.60;1.10;;;;;;;18.86;50.16;94920.22;10445359;28;20037;-52
2023/03/14 07:09:37;;;;;;;2.35;1.05;;;;;;;18.87;50.23;94929.84;10438320;28;20520;-50
2023/03/14 07:14:57;;;;;;;2.00;1.30;;;;;;;18.90;50.13;94926.44;10448179;28;20037;-52
2023/03/14 07:20:17;;;;;;;2.60;1.50;;;;;;;18.92;49.96;94918.75;10446520;28;20053;-52
2023/03/14 07:25:38;;;;;;;2.10;1.25;;;;;;;18.95;50.06;94907.25;10447292;28;20075;-52
2023/03/14 07:30:58;;;;;;;3.83;1.15;;;;;;;18.98;50.10;94916.53;10460545;28;20396;-51
2023/03/14 07:36:23;;;;;;;2.33;1.33;;;;;;;19.01;50.07;94913.09;10459743;28;20041;-51
2023/03/14 07:41:43;;;;;;;2.40;1.17;;;;;;;19.04;50.29;94920.47;10427078;28;20045;-50
2023/03/14 07:47:18;;;;;;;2.63;0.68;;;;;;;18.91;45.24;94916.41;10468101;28;20562;-50
2023/03/14 07:52:38;;;;;;;0.70;0.50;;;;;;;18.71;44.21;94916.50;10456719;28;20049;-50
2023/03/14 07:57:57;;;;;;;0.90;0.50;;;;;;;18.57;43.52;94921.72;10427160;28;20057;-49
2023/03/14 08:03:17;;;;;;;0.70;0.57;;;;;;;18.49;42.94;94918.13;10424665;28;20053;-50
2023/03/14 08:08:37;;;;;;;1.05;0.50;;;;;;;18.46;43.00;94918.84;10433902;28;20053;-49
2023/03/14 08:13:56;;;;;;;0.63;0.43;;;;;;;18.43;42.70;94930.34;10449506;28;20052;-50
2023/03/14 08:19:16;;;;;;;0.95;0.47;;;;;;;18.43;42.66;94930.34;10431696;28;20049;-47
2023/03/14 08:24:35;;;;;;;0.65;0.50;;;;;;;18.53;42.91;94929.75;10458704;28;20489;-50
2023/03/14 08:29:55;;;;;;;0.93;0.55;;;;;;;18.70;42.58;94928.47;10454767;28;20459;-49
2023/03/14 08:35:15;;;;;;;0.40;0.40;;;;;;;18.82;42.11;94924.00;10457984;28;20053;-47
2023/03/14 08:40:34;;;;;;;0.60;0.40;;;;;;;18.90;41.81;94931.06;10432763;28;20054;-50
2023/03/14 08:45:58;;;;;;;0.40;0.40;;;;;;;18.95;41.74;94926.13;10430335;28;20075;-48
2023/03/14 08:51:17;;;;;;;0.65;0.40;;;;;;;19.01;43.55;94929.28;10416593;28;20053;-47
2023/03/14 08:56:40;;;;;;;0.45;0.40;;;;;;;19.02;43.82;94925.44;10430081;28;20405;-50
2023/03/14 09:02:03;;;;;;;0.50;0.40;;;;;;;19.05;43.95;94930.13;10452732;28;20382;-51
2023/03/14 09:07:22;;;;;;;0.30;0.30;;;;;;;19.08;44.12;94940.16;10437797;28;20045;-48
2023/03/14 09:12:42;;;;;;;0.80;0.43;;;;;;;19.10;44.17;94950.59;10440564;28;20045;-47
2023/03/14 09:18:01;;;;;;;1.25;0.40;;;;;;;19.11;44.20;94966.44;10448404;28;20057;-47
2023/03/14 09:23:21;;;;;;;0.52;0.32;;;;;;;19.13;44.28;94958.75;10438704;28;20056;-48
2023/03/14 09:28:41;;;;;;;0.68;0.50;;;;;;;19.16;44.13;94970.72;10457012;28;20080;-49
2023/03/14 09:34:00;;;;;;;0.30;0.30;;;;;;;19.17;42.79;94961.50;10455207;28;20119;-49
2023/03/14 09:39:20;;;;;;;0.80;0.40;;;;;;;19.19;43.96;94953.03;10444110;28;20044;-49
2023/03/14 09:44:48;;;;;;;0.50;0.40;;;;;;;19.20;44.12;94955.34;10435978;28;20078;-49
2023/03/14 09:50:15;;;;;;;0.90;0.43;;;;;;;19.21;44.26;94958.81;10413345;28;20060;-48
2023/03/14 09:55:35;;;;;;;0.57;0.50;;;;;;;19.24;44.51;94953.47;10416037;28;20064;-49
2023/03/14 10:00:56;;;;;;;0.70;0.50;;;;;;;19.25;44.52;94946.16;10415281;28;20099;-50
2023/03/14 10:06:16;;;;;;;0.75;0.40;;;;;;;19.27;44.60;94943.88;10415107;28;20052;-50
2023/03/14 10:11:36;;;;;;;0.73;0.45;;;;;;;19.29;44.86;94947.00;10447566;28;20060;-47
2023/03/14 10:17:05;;;;;;;0.85;0.40;;;;;;;19.31;45.10;94937.38;10456523;28;20064;-47
2023/03/14 10:22:26;;;;;;;0.55;0.43;;;;;;;19.32;45.02;94933.53;10455851;28;20049;-48
2023/03/14 10:27:45;;;;;;;4.35;0.55;;;;;;;19.35;45.15;94929.31;10469301;28;20056;-47
2023/03/14 10:33:10;;;;;;;0.50;0.40;;;;;;;19.38;44.45;94938.59;10455865;28;20053;-46
2023/03/14 10:38:35;;;;;;;0.75;0.50;;;;;;;19.40;44.02;94942.47;10455684;28;20052;-46
2023/03/14 10:43:57;;;;;;;0.32;0.32;;;;;;;19.41;44.62;94941.34;10453846;28;20562;-45
2023/03/14 10:49:27;;;;;;;1.17;0.52;;;;;;;19.42;44.46;94934.03;10440596;28;20053;-47
2023/03/14 10:54:49;;;;;;;0.95;0.50;;;;;;;19.44;44.61;94951.41;10455213;28;20057;-48
2023/03/14 11:00:16;;;;;;;0.65;0.50;;;;;;;19.46;44.80;94946.41;10462693;28;20048;-48
2023/03/14 11:05:50;;;;;;;0.52;0.40;;;;;;;19.48;44.75;94949.53;10462918;28;20049;-49
2023/03/14 11:11:16;;;;;;;0.45;0.40;;;;;;;19.50;44.88;94941.84;10461654;28;20045;-46
2023/03/14 11:16:44;;;;;;;0.77;0.50;;;;;;;19.51;44.98;94946.09;10475838;28;20044;-49
2023/03/14 11:22:22;;;;;;;0.95;0.50;;;;;;;19.54;44.92;94948.06;10461995;28;20052;-46
2023/03/14 11:27:51;;;;;;;1.77;0.50;;;;;;;19.55;41.50;94952.31;10462036;28;20052;-46
2023/03/14 11:33:38;;;;;;;0.82;0.60;;;;;;;19.54;38.85;94939.16;10461638;28;20052;-49
2023/03/14 11:38:59;;;;;;;0.47;0.35;;;;;;;19.53;39.50;94929.53;10474135;28;20041;-48
2023/03/14 11:44:22;;;;;;;0.40;0.40;;;;;;;19.55;41.45;94927.22;10461227;28;20071;-48
2023/03/14 11:50:06;;;;;;;0.50;0.40;;;;;;;19.58;41.84;94936.50;10445953;28;20057;-47
2023/03/14 11:55:27;;;;;;;0.90;0.50;;;;;;;19.58;42.18;94936.50;10456222;28;20107;-46
2023/03/14 12:00:48;;;;;;;2.67;0.60;;;;;;;19.61;42.33;94933.09;10460845;28;20053;-48
2023/03/14 12:06:22;;;;;;;0.50;0.50;;;;;;;19.61;42.53;94914.94;10445264;28;20056;-48
2023/03/14 12:11:56;;;;;;;0.73;0.40;;;;;;;19.64;42.75;94925.03;10460050;28;20049;-51
2023/03/14 12:17:40;;;;;;;1.65;0.40;;;;;;;19.65;42.93;94910.34;10460306;28;20057;-48
2023/03/14 12:23:11;;;;;;;0.40;0.40;;;;;;;19.67;43.18;94904.59;10459825;28;20091;-46
2023/03/14 12:28:31;;;;;;;0.40;0.40;;;;;;;19.69;43.39;94910.41;10443017;28;20064;-49
2023/03/14 12:34:09;;;;;;;1.58;0.50;;;;;;;19.69;43.58;94903.06;10455950;28;20045;-48
2023/03/14 12:39:43;;;;;;;0.80;0.40;;;;;;;19.72;43.69;94899.66;10455923;28;20052;-49
2023/03/14 12:45:23;;;;;;;0.70;0.50;;;;;;;19.73;43.84;94900.44;10458317;28;20059;-48
2023/03/14 12:50:44;;;;;;;0.82;0.32;;;;;;;19.77;43.75;94906.66;10458613;28;20061;-49
2023/03/14 12:56:26;;;;;;;1.77;0.40;;;;;;;19.79;43.95;94893.53;10457708;28;20122;-49
2023/03/14 13:01:52;;;;;;;1.15;0.40;;;;;;;19.79;44.30;94887.38;10424680;28;20075;-50
2023/03/14 13:07:31;;;;;;;0.57;0.40;;;;;;;19.82;44.50;94886.63;10458045;28;20056;-50
2023/03/14 13:12:52;;;;;;;0.63;0.40;;;;;;;19.83;44.60;94891.66;10457940;28;20072;-51
2023/03/14 13:18:14;;;;;;;1.52;0.50;;;;;;;19.85;44.97;94877.78;10457262;28;20118;-50
2023/03/14 13:23:36;;;;;;;0.40;0.40;;;;;;;19.87;45.00;94878.94;10442358;28;20412;-50
2023/03/14 13:28:55;;;;;;;0.50;0.40;;;;;;;19.89;45.06;94878.56;10453021;28;20060;-50
2023/03/14 13:34:15;;;;;;;1.00;0.40;;;;;;;19.90;45.40;94883.63;10457030;28;20405;-52
2023/03/14 13:39:34;;;;;;;0.60;0.45;;;;;;;19.92;45.64;94892.13;10457007;28;20056;-49
2023/03/14 13:44:55;;;;;;;1.23;0.50;;;;;;;19.93;45.72;94892.91;10419416;28;20052;-50
2023/03/14 13:50:18;;;;;;;0.40;0.40;;;;;;;19.94;45.81;94884.41;10437022;28;20045;-49
2023/03/14 13:55:38;;;;;;;0.55;0.40;;;;;;;19.95;45.87;94874.38;10445507;28;20064;-51
2023/03/14 14:01:20;;;;;;;0.68;0.43;;;;;;;19.98;46.16;94872.88;10456561;28;20060;-48
2023/03/14 14:06:49;;;;;;;0.50;0.40;;;;;;;19.99;46.00;94871.72;10456125;28;20057;-47
2023/03/14 14:12:13;;;;;;;2.72;0.43;;;;;;;20.00;45.97;94865.16;10440800;28;20064;-49
2023/03/14 14:17:37;;;;;;;2.05;0.40;;;;;;;20.02;45.94;94857.47;10468825;28;20485;-50
2023/03/14 14:22:58;;;;;;;0.60;0.60;;;;;;;20.01;44.16;94839.69;10455612;28;20049;-49
2023/03/14 14:28:28;;;;;;;1.27;0.68;;;;;;;20.05;45.32;94835.06;10453629;28;20041;-48
2023/03/14 14:33:54;;;;;;;0.80;0.50;;;;;;;20.06;45.33;94833.94;10463191;28;20523;-50
2023/03/14 14:39:20;;;;;;;4.25;0.68;;;;;;;20.07;45.27;94838.19;10463877;28;20115;-50
2023/03/14 14:44:39;;;;;;;0.65;0.47;;;;;;;20.07;45.34;94836.28;10463617;28;20107;-47
2023/03/14 14:50:04;;;;;;;1.13;0.60;;;;;;;20.09;45.44;94835.88;10448466;28;20126;-49
2023/03/14 14:55:32;;;;;;;0.88;0.50;;;;;;;20.09;45.43;94835.88;10464400;28;20052;-47
2023/03/14 15:01:17;;;;;;;0.50;0.50;;;;;;;20.11;45.60;94828.97;10463161;28;20388;-48
2023/03/14 15:06:36;;;;;;;0.75;0.50;;;;;;;20.12;45.58;94840.53;10462037;28;20095;-48
2023/03/14 15:11:56;;;;;;;1.00;0.50;;;;;;;20.13;45.64;94831.28;10475725;28;20041;-48
2023/03/14 15:17:15;;;;;;;0.35;0.30;;;;;;;20.15;45.63;94834.41;10462255;28;20052;-50
2023/03/14 15:22:34;;;;;;;0.90;0.60;;;;;;;20.16;45.60;94830.53;10461967;28;20103;-49
2023/03/14 15:27:54;;;;;;;0.60;0.40;;;;;;;20.17;45.64;94826.69;10461240;28;20056;-50
2023/03/14 15:33:13;;;;;;;0.55;0.52;;;;;;;20.19;45.76;94829.00;10474873;28;20037;-47
2023/03/14 15:38:33;;;;;;;0.68;0.60;;;;;;;20.20;45.88;94828.63;10461421;28;20057;-46
2023/03/14 15:43:53;;;;;;;1.25;0.73;;;;;;;20.21;45.50;94832.91;10460856;28;20045;-46
2023/03/14 15:49:12;;;;;;;0.77;0.60;;;;;;;20.21;45.50;94830.19;10461011;28;20504;-50
2023/03/14 15:54:31;;;;;;;1.60;0.57;;;;;;;20.23;45.65;94856.84;10418686;28;20053;-48
2023/03/14 15:59:51;;;;;;;0.40;0.35;;;;;;;20.24;45.63;94847.59;10419112;28;20520;-48
2023/03/14 16:05:11;;;;;;;1.15;0.50;;;;;;;20.26;45.70;94850.69;10406524;28;20510;-51
2023/03/14 16:10:31;;;;;;;1.00;0.40;;;;;;;20.26;45.63;94846.03;10377522;28;20049;-51
2023/03/14 16:16:02;;;;;;;0.50;0.50;;;;;;;20.28;45.73;94859.97;10377949;28;20398;-51
2023/03/14 16:21:22;;;;;;;0.50;0.50;;;;;;;20.29;45.63;94856.13;10377636;28;20046;-48
2023/03/14 16:26:41;;;;;;;0.70;0.60;;;;;;;20.29;45.64;94864.25;10376592;28;20105;-47
2023/03/14 16:32:01;;;;;;;0.32;0.32;;;;;;;20.31;45.64;94867.34;10390599;28;20042;-47
2023/03/14 16:37:23;;;;;;;0.50;0.43;;;;;;;20.30;45.66;94879.28;10376937;28;20061;-48
2023/03/14 16:42:42;;;;;;;0.43;0.40;;;;;;;20.32;45.71;94877.00;10376517;28;20056;-48
2023/03/14 16:48:01;;;;;;;0.40;0.40;;;;;;;20.33;45.67;94888.59;10376886;28;20058;-48
2023/03/14 16:53:22;;;;;;;0.57;0.40;;;;;;;20.35;45.74;94905.22;10392850;28;20414;-47
2023/03/14 16:58:41;;;;;;;1.20;0.47;;;;;;;20.36;45.58;94914.88;10430198;28;20041;-48
2023/03/14 17:04:01;;;;;;;1.02;0.50;;;;;;;20.37;45.28;94953.53;10415075;28;20056;-47
2023/03/14 17:09:20;;;;;;;70.88;24.65;;;;;;;20.38;45.79;94987.53;10416007;28;20502;-47
2023/03/14 17:14:39;;;;;;;13.95;5.18;;;;;;;20.39;46.13;94981.00;10415991;28;20513;-48
2023/03/14 17:19:59;;;;;;;10.25;3.60;;;;;;;20.40;46.65;94986.00;10415994;28;20064;-47
2023/03/14 17:25:18;;;;;;;6.45;2.60;;;;;;;20.40;44.95;94993.34;10415724;28;20416;-48
2023/03/14 17:30:38;;;;;;;9.75;3.13;;;;;;;20.44;46.80;94999.56;10415321;28;20140;-48
2023/03/14 17:35:58;;;;;;;5.05;2.50;;;;;;;20.45;45.65;95009.25;10428896;28;20056;-49
2023/03/14 17:41:17;;;;;;;5.40;2.13;;;;;;;20.46;46.56;95027.00;10415644;28;20443;-52
2023/03/14 17:46:36;;;;;;;6.60;2.10;;;;;;;20.46;46.79;95035.91;10415210;28;20045;-48
2023/03/14 17:51:56;;;;;;;7.20;1.90;;;;;;;20.48;47.08;95051.75;10450739;28;20555;-48
2023/03/14 17:57:15;;;;;;;5.15;2.10;;;;;;;20.49;47.22;95064.16;10469767;28;20041;-49
2023/03/14 18:02:35;;;;;;;7.50;1.88;;;;;;;20.51;47.49;95078.06;10455695;28;20492;-46
2023/03/14 18:07:55;;;;;;;6.18;1.70;;;;;;;20.53;47.37;95095.47;10455773;28;20055;-45
2023/03/14 18:13:14;;;;;;;5.07;1.70;;;;;;;20.54;47.42;95105.16;10456228;28;20052;-49
2023/03/14 18:18:33;;;;;;;5.30;1.80;;;;;;;20.56;47.48;95123.72;10469344;28;20041;-47
2023/03/14 18:23:53;;;;;;;5.85;1.73;;;;;;;20.57;47.67;95146.94;10456450;28;20049;-45
2023/03/14 18:29:13;;;;;;;4.60;1.48;;;;;;;20.59;47.97;95181.72;10444347;28;20132;-48
2023/03/14 18:34:33;;;;;;;5.10;1.77;;;;;;;20.61;47.68;95206.50;10433109;28;20107;-48
2023/03/14 18:39:52;;;;;;;3.63;1.40;;;;;;;20.62;47.82;95237.81;10446057;28;20608;-46
2023/03/14 18:45:12;;;;;;;4.47;1.50;;;;;;;20.61;47.66;95274.16;10440547;28;20390;-48
2023/03/14 18:50:32;;;;;;;2.10;0.65;;;;;;;20.53;42.92;95303.78;10455489;28;20059;-48
2023/03/14 18:55:53;;;;;;;2.47;1.20;;;;;;;20.48;45.24;95309.53;10452327;28;21321;-46
2023/03/14 19:01:16;;;;;;;3.90;1.25;;;;;;;20.52;45.49;95336.59;10462888;28;20094;-45
2023/03/14 19:06:35;;;;;;;2.30;1.10;;;;;;;20.55;45.88;95362.94;10434247;28;20045;-46
2023/03/14 19:11:55;;;;;;;2.15;0.95;;;;;;;20.54;45.92;95385.72;10457980;28;20048;-46
2023/03/14 19:17:15;;;;;;;4.00;1.40;;;;;;;20.55;46.15;95404.31;10457639;28;20060;-46
2023/03/14 19:22:34;;;;;;;3.30;1.13;;;;;;;20.54;46.40;95421.69;10462396;28;20102;-46
2023/03/14 19:27:54;;;;;;;3.80;0.98;;;;;;;20.55;46.48;95442.19;10461547;28;20057;-45
2023/03/14 19:33:15;;;;;;;2.83;0.90;;;;;;;20.56;46.57;95470.00;10461817;28;20381;-44
2023/03/14 19:38:35;;;;;;;2.08;1.00;;;;;;;20.54;46.76;95481.22;10461248;28;20140;-45
2023/03/14 19:43:55;;;;;;;2.42;1.15;;;;;;;20.54;46.78;95502.06;10461451;28;20095;-47
2023/03/14 19:49:14;;;;;;;1.75;0.80;;;;;;;20.52;46.77;95524.09;10451582;28;20112;-48
2023/03/14 19:54:34;;;;;;;2.83;1.10;;;;;;;20.52;47.12;95544.91;10419319;28;20079;-45
2023/03/14 19:59:53;;;;;;;4.30;1.20;;;;;;;20.52;47.07;95572.78;10419102;28;20504;-46
2023/03/14 20:05:13;;;;;;;3.15;0.98;;;;;;;20.51;47.26;95581.25;10432757;28;20135;-44
2023/03/14 20:10:35;;;;;;;2.95;1.13;;;;;;;20.51;47.17;95592.06;10419225;28;20073;-44
2023/03/14 20:15:54;;;;;;;3.28;1.10;;;;;;;20.51;47.59;95602.91;10432088;28;20413;-44
2023/03/14 20:21:13;;;;;;;3.15;1.00;;;;;;;20.50;47.47;95623.75;10419003;28;20132;-46
2023/03/14 20:26:35;;;;;;;2.42;0.70;;;;;;;20.49;47.58;95637.63;10431658;28;20041;-44
2023/03/14 20:31:54;;;;;;;2.22;1.00;;;;;;;20.47;47.46;95653.44;10418264;28;20100;-43
2023/03/14 20:37:14;;;;;;;2.83;0.80;;;;;;;20.47;47.19;95675.09;10418109;28;20049;-46
2023/03/14 20:42:34;;;;;;;3.58;1.00;;;;;;;20.45;47.22;95697.09;10448210;28;20055;-45
2023/03/14 20:47:53;;;;;;;1.92;0.88;;;;;;;20.44;47.11;95708.25;10459044;28;20056;-44
2023/03/14 20:53:14;;;;;;;3.92;1.00;;;;;;;20.43;47.05;95728.34;10457670;28;20058;-47
2023/03/14 20:58:34;;;;;;;1.65;0.80;;;;;;;20.41;46.97;95753.03;10420792;28;20041;-45
2023/03/14 21:03:53;;;;;;;1.75;0.68;;;;;;;20.39;46.83;95755.31;10419737;28;20050;-46
2023/03/14 21:09:13;;;;;;;1.27;0.90;;;;;;;20.40;46.72;95766.91;10417147;28;20054;-44
2023/03/14 21:14:33;;;;;;;2.03;0.90;;;;;;;20.38;46.60;95782.72;10417196;28;20054;-45
2023/03/14 21:19:57;;;;;;;2.15;0.80;;;;;;;20.36;46.47;95807.41;10419253;28;20080;-44
2023/03/14 21:25:16;;;;;;;1.85;0.80;;;;;;;20.36;46.09;95810.09;10427716;28;20500;-44
2023/03/14 21:30:36;;;;;;;1.40;0.75;;;;;;;20.33;45.96;95825.13;10436152;28;20049;-46
2023/03/14 21:35:55;;;;;;;1.77;0.73;;;;;;;20.32;45.98;95820.06;10439183;28;20052;-47
2023/03/14 21:41:15;;;;;;;1.45;0.70;;;;;;;20.30;45.97;95825.03;10456548;28;20065;-46
2023/03/14 21:46:35;;;;;;;2.30;0.70;;;;;;;20.28;45.91;95819.97;10457134;28;20515;-46
2023/03/14 21:51:54;;;;;;;1.60;0.68;;;;;;;20.27;46.02;95834.66;10465842;28;20424;-47
2023/03/14 21:57:15;;;;;;;1.67;0.82;;;;;;;20.25;45.99;95855.09;10456615;28;20049;-44
2023/03/14 22:02:34;;;;;;;1.65;0.90;;;;;;;20.22;46.13;95848.44;10456746;28;20053;-45
2023/03/14 22:07:53;;;;;;;3.17;0.80;;;;;;;20.22;46.22;95851.16;10455602;28;20063;-46
2023/03/14 22:13:14;;;;;;;2.38;0.77;;;;;;;20.22;46.27;95863.88;10455767;28;20389;-45
2023/03/14 22:18:33;;;;;;;1.05;0.70;;;;;;;20.21;46.23;95862.31;10456480;28;20076;-44
2023/03/14 22:23:53;;;;;;;1.23;0.70;;;;;;;20.19;46.22;95867.28;10455698;28;20103;-44
2023/03/14 22:29:13;;;;;;;1.48;0.60;;;;;;;20.18;46.17;95869.22;10456181;28;20127;-45
2023/03/14 22:34:33;;;;;;;1.27;0.65;;;;;;;20.17;46.35;95888.47;10456193;28;20056;-44
2023/03/14 22:39:53;;;;;;;1.67;0.70;;;;;;;20.12;46.21;95906.53;10455932;28;20062;-45
2023/03/14 22:45:13;;;;;;;2.22;0.57;;;;;;;20.11;46.34;95915.81;10455730;28;20060;-44
2023/03/14 22:50:33;;;;;;;1.52;0.80;;;;;;;20.10;46.36;95929.66;10455871;28;20107;-45
2023/03/14 22:55:57;;;;;;;1.38;0.68;;;;;;;20.08;46.38;95927.31;10462730;28;20057;-45
2023/03/14 23:01:17;;;;;;;1.00;0.60;;;;;;;20.08;46.30;95934.63;10462751;28;20531;-46
2023/03/14 23:06:37;;;;;;;1.10;0.70;;;;;;;20.06;46.35;95926.09;10463493;28;20053;-46
2023/03/14 23:11:56;;;;;;;1.08;0.60;;;;;;;20.05;46.53;95944.25;10462798;28;20076;-45
2023/03/14 23:17:16;;;;;;;1.23;0.65;;;;;;;20.04;46.39;95952.69;10462108;28;20049;-46
2023/03/14 23:22:35;;;;;;;1.40;0.63;;;;;;;20.02;46.37;95960.38;10461995;28;20053;-45
2023/03/14 23:27:54;;;;;;;1.83;0.63;;;;;;;20.01;46.35;95954.16;10462375;28;20064;-46
2023/03/14 23:33:14;;;;;;;2.00;0.80;;;;;;;19.99;46.40;95959.13;10462053;28;20049;-44
2023/03/14 23:38:33;;;;;;;1.27;0.63;;;;;;;19.99;46.41;95961.03;10475153;28;20045;-45
2023/03/14 23:43:53;;;;;;;1.17;0.50;;;;;;;19.97;46.55;95974.13;10461914;28;20094;-46
2023/03/14 23:49:12;;;;;;;1.55;0.60;;;;;;;19.94;46.43;95989.91;10461262;28;20061;-44
2023/03/14 23:54:32;;;;;;;1.27;0.60;;;;;;;19.93;46.43;95985.66;10460832;28;20057;-45
2023/03/14 23:59:52;;;;;;;0.95;0.45;;;;;;;19.92;46.50;95988.69;10460314;28;20489;-46
